Time;durP1;ratioP1;P1;durP2;ratioP2;P2;SDS_P1;SDS_P2;PMS_P1;PMS_P2;Temp;Humidity;BMP_temperature;BMP_pressure;BME280_temperature;BME280_humidity;BME280_pressure;Samples;Min_cycle;Max_cycle;Signal;HPM_P1;HPM_P2
2022/04/12 00:00:38;;;;;;;6.07;2.43;;;;;;;4.96;67.15;94944.59;5031346;28;20209;-61
2022/04/12 00:03:05;;;;;;;3.80;2.50;;;;;;;4.93;67.55;94934.69;5031503;28;20284;-64
2022/04/12 00:05:35;;;;;;;3.23;2.73;;;;;;;5.00;67.35;94933.44;5031389;28;20227;-62
2022/04/12 00:08:01;;;;;;;3.33;2.50;;;;;;;4.97;66.65;94941.16;5017321;28;20628;-61
2022/04/12 00:10:28;;;;;;;3.33;2.27;;;;;;;4.97;66.91;94925.22;5035161;28;20264;-63
2022/04/12 00:12:56;;;;;;;3.07;2.27;;;;;;;4.98;67.53;94929.38;5035046;28;20174;-63
2022/04/12 00:15:22;;;;;;;5.40;2.83;;;;;;;4.93;67.20;94934.69;5035115;28;20202;-62
2022/04/12 00:20:31;;;;;;;2.93;2.30;;;;;;;4.91;68.00;94920.53;5034942;28;20297;-61
2022/04/12 00:22:58;;;;;;;3.17;2.80;;;;;;;4.91;67.92;94911.28;5035028;28;20725;-61
2022/04/12 00:25:24;;;;;;;4.80;2.37;;;;;;;5.05;67.25;94925.59;5034953;28;20226;-61
2022/04/12 00:27:52;;;;;;;4.20;2.47;;;;;;;5.02;66.61;94916.53;5034715;28;20250;-61
2022/04/12 00:30:21;;;;;;;4.13;3.00;;;;;;;4.97;67.17;94926.03;5034942;28;20194;-60
2022/04/12 00:32:47;;;;;;;2.80;2.37;;;;;;;4.95;67.58;94915.25;5034712;28;20253;-61
2022/04/12 00:35:12;;;;;;;4.67;2.63;;;;;;;4.92;67.69;94917.97;5016808;28;20278;-60
2022/04/12 00:37:38;;;;;;;3.77;2.33;;;;;;;4.91;67.67;94902.91;5034697;28;20178;-61
2022/04/12 00:40:05;;;;;;;5.67;2.57;;;;;;;5.08;67.30;94913.63;5034521;28;20194;-60
2022/04/12 00:42:31;;;;;;;4.07;2.43;;;;;;;5.32;67.98;94906.31;5016825;28;20275;-61
2022/04/12 00:44:57;;;;;;;4.07;2.40;;;;;;;5.42;66.95;94922.50;5034867;28;20700;-61
2022/04/12 00:47:23;;;;;;;3.43;2.60;;;;;;;5.32;66.23;94934.03;5034594;28;20248;-61
2022/04/12 00:49:48;;;;;;;3.57;2.40;;;;;;;5.49;65.62;94943.13;5041478;23;20251;-60
2022/04/12 00:52:14;;;;;;;3.97;2.60;;;;;;;5.50;66.33;94927.88;5034611;28;20588;-60
2022/04/12 00:54:41;;;;;;;10.67;2.53;;;;;;;5.50;65.86;94937.16;5034287;28;20267;-62
2022/04/12 00:57:07;;;;;;;3.83;2.50;;;;;;;5.52;66.16;94925.28;5034241;28;20564;-65
2022/04/12 00:59:33;;;;;;;6.13;3.20;;;;;;;5.47;65.99;94933.13;5034254;28;20607;-60
2022/04/12 01:02:01;;;;;;;3.03;2.63;;;;;;;5.57;66.18;94931.69;5033994;28;20276;-60
2022/04/12 01:04:26;;;;;;;6.43;3.03;;;;;;;5.50;65.74;94944.72;5035014;28;20541;-62
2022/04/12 01:06:52;;;;;;;4.17;2.67;;;;;;;5.48;65.26;94949.84;5016931;28;20201;-61
2022/04/12 01:09:18;;;;;;;2.87;2.40;;;;;;;5.63;65.91;94938.03;5033418;28;20176;-62
2022/04/12 01:11:48;;;;;;;3.67;2.53;;;;;;;5.74;65.82;94933.97;5033897;28;20247;-60
2022/04/12 01:14:17;;;;;;;4.87;2.67;;;;;;;5.80;65.67;94931.06;5034084;28;20184;-62
2022/04/12 01:16:43;;;;;;;4.50;2.50;;;;;;;5.83;65.60;94937.63;5033877;28;20643;-60
2022/04/12 01:19:09;;;;;;;4.00;3.30;;;;;;;5.83;65.00;94941.00;5032968;28;20584;-60
2022/04/12 01:21:54;;;;;;;3.67;2.83;;;;;;;5.86;65.04;94938.28;5034028;28;20209;-62
2022/04/12 01:24:20;;;;;;;3.30;2.80;;;;;;;5.97;65.19;94940.13;5016261;28;20181;-61
2022/04/12 01:26:46;;;;;;;4.13;2.87;;;;;;;5.95;66.00;94926.81;5032574;28;20217;-62
2022/04/12 01:29:12;;;;;;;5.70;3.37;;;;;;;5.90;67.90;94903.56;5015925;28;20177;-62
2022/04/12 01:31:38;;;;;;;10.67;3.50;;;;;;;6.16;66.80;94917.88;5033793;28;20202;-60
2022/04/12 01:34:04;;;;;;;8.73;4.33;;;;;;;6.08;67.38;94906.69;5033749;28;20189;-60
2022/04/12 01:36:29;;;;;;;6.60;4.17;;;;;;;5.88;68.25;94897.81;5033673;28;20201;-63
2022/04/12 01:38:55;;;;;;;6.20;4.07;;;;;;;5.72;68.54;94897.94;5034059;28;20196;-59
2022/04/12 01:41:20;;;;;;;7.07;4.13;;;;;;;5.58;68.92;94892.94;5015686;28;20211;-60
2022/04/12 01:43:45;;;;;;;6.57;4.03;;;;;;;5.54;69.21;94886.47;5034003;28;20220;-62
2022/04/12 01:46:11;;;;;;;8.03;4.00;;;;;;;5.44;69.65;94884.59;5035979;23;20244;-61
2022/04/12 01:48:36;;;;;;;9.07;4.10;;;;;;;5.36;70.05;94874.16;5053674;28;20326;-60
2022/04/12 01:51:02;;;;;;;6.83;4.47;;;;;;;5.28;70.76;94878.88;5052003;28;20584;-62
2022/04/12 01:53:27;;;;;;;11.03;4.63;;;;;;;5.19;71.54;94871.88;5053418;28;20636;-63
2022/04/12 01:56:12;;;;;;;8.13;4.50;;;;;;;5.07;72.57;94863.31;5053520;28;20233;-61
2022/04/12 01:58:38;;;;;;;7.70;4.07;;;;;;;4.98;73.33;94857.16;5053338;28;20226;-61
2022/04/12 02:01:04;;;;;;;7.73;4.73;;;;;;;4.97;73.13;94865.59;5053369;28;20196;-60
2022/04/12 02:03:29;;;;;;;6.40;4.03;;;;;;;4.76;74.34;94854.28;5053308;28;20186;-63
2022/04/12 02:05:55;;;;;;;9.90;3.93;;;;;;;4.87;73.43;94868.75;5051691;28;20780;-60
2022/04/12 02:08:21;;;;;;;7.10;3.80;;;;;;;4.92;73.23;94867.59;5053114;28;20265;-61
2022/04/12 02:10:47;;;;;;;6.30;3.77;;;;;;;4.82;74.02;94870.72;5051739;28;20217;-61
2022/04/12 02:13:12;;;;;;;5.63;3.27;;;;;;;4.68;73.99;94870.72;5053240;28;20257;-63
2022/04/12 02:15:38;;;;;;;7.40;3.77;;;;;;;4.60;73.90;94861.13;5072925;23;20590;-62
2022/04/12 02:18:03;;;;;;;7.40;3.83;;;;;;;4.85;71.95;94888.97;5033042;28;20229;-63
2022/04/12 02:20:29;;;;;;;5.53;3.33;;;;;;;4.77;72.77;94872.69;5015060;28;20204;-61
2022/04/12 02:22:54;;;;;;;5.73;3.30;;;;;;;4.85;71.87;94885.66;5033210;28;20179;-62
2022/04/12 02:25:20;;;;;;;8.60;3.73;;;;;;;4.77;71.43;94878.56;5032901;28;20249;-62
2022/04/12 02:27:45;;;;;;;7.00;3.37;;;;;;;4.76;72.61;94866.88;5033010;28;20246;-61
2022/04/12 02:30:13;;;;;;;4.03;3.20;;;;;;;4.75;72.91;94862.72;5032471;28;20320;-62
2022/04/12 02:32:39;;;;;;;4.60;3.13;;;;;;;4.61;74.15;94855.16;5032649;28;20271;-63
2022/04/12 02:35:06;;;;;;;4.57;3.73;;;;;;;4.71;73.11;94881.44;5032588;28;20190;-62
2022/04/12 02:37:31;;;;;;;6.40;3.40;;;;;;;4.61;74.32;94864.41;5032652;28;20290;-61
2022/04/12 02:39:57;;;;;;;6.57;2.90;;;;;;;4.69;73.11;94880.72;5032299;28;20206;-62
2022/04/12 02:42:22;;;;;;;6.10;3.00;;;;;;;4.75;72.65;94887.91;5032478;28;20223;-60
2022/04/12 02:44:54;;;;;;;6.20;3.23;;;;;;;4.82;72.36;94896.72;5014592;28;20285;-61
2022/04/12 02:47:23;;;;;;;5.23;2.90;;;;;;;4.79;73.63;94861.66;5032717;28;20209;-61
2022/04/12 02:49:49;;;;;;;4.87;2.63;;;;;;;5.02;73.60;94873.69;5032312;28;20203;-61
2022/04/12 02:52:15;;;;;;;9.80;4.20;;;;;;;4.80;75.69;94853.22;5032322;28;20752;-62
2022/04/12 02:54:40;;;;;;;7.77;3.37;;;;;;;4.82;73.94;94875.78;5032266;28;20268;-60
2022/04/12 02:57:06;;;;;;;12.70;4.20;;;;;;;4.63;75.74;94853.38;5032317;28;20204;-60
2022/04/12 02:59:31;;;;;;;8.70;3.70;;;;;;;4.49;77.10;94834.94;5015053;28;20587;-62
2022/04/12 03:01:57;;;;;;;5.47;3.20;;;;;;;4.52;77.83;94850.69;5032702;28;20195;-59
2022/04/12 03:04:22;;;;;;;9.63;3.93;;;;;;;4.63;76.14;94863.44;5031989;28;20192;-62
2022/04/12 03:06:47;;;;;;;9.63;3.97;;;;;;;4.75;75.22;94877.84;5032141;28;20218;-64
2022/04/12 03:09:13;;;;;;;7.63;3.40;;;;;;;4.50;75.79;94865.06;5031867;28;20576;-64
2022/04/12 03:11:40;;;;;;;7.33;3.20;;;;;;;4.56;74.98;94874.78;5032123;28;20740;-61
2022/04/12 03:14:08;;;;;;;8.53;3.50;;;;;;;4.57;75.42;94878.91;5039325;23;20322;-62
2022/04/12 03:16:33;;;;;;;9.30;3.73;;;;;;;4.43;75.99;94875.56;5032278;28;20240;-62
2022/04/12 03:18:58;;;;;;;10.00;3.43;;;;;;;4.55;75.29;94888.25;5032470;28;20713;-59
2022/04/12 03:21:24;;;;;;;8.40;3.77;;;;;;;4.35;76.80;94870.97;5031839;28;20255;-61
2022/04/12 03:23:49;;;;;;;14.07;3.70;;;;;;;4.41;76.18;94880.69;5032445;28;20244;-61
2022/04/12 03:26:15;;;;;;;9.83;3.90;;;;;;;4.32;76.75;94871.16;5031904;28;20234;-63
2022/04/12 03:28:40;;;;;;;4.70;3.03;;;;;;;4.45;75.65;94891.38;5032243;28;20210;-63
2022/04/12 03:31:06;;;;;;;7.90;3.30;;;;;;;4.12;78.68;94864.72;5031953;28;20201;-60
2022/04/12 03:33:31;;;;;;;11.80;3.40;;;;;;;3.98;79.43;94854.63;5032234;28;20536;-63
2022/04/12 03:35:57;;;;;;;10.47;3.70;;;;;;;3.96;79.46;94866.47;5031631;28;20224;-60
2022/04/12 03:38:22;;;;;;;7.23;3.00;;;;;;;3.88;80.63;94867.81;5032258;28;20183;-61
2022/04/12 03:40:48;;;;;;;9.30;3.93;;;;;;;4.03;79.75;94884.56;5032182;28;20321;-62
2022/04/12 03:43:13;;;;;;;4.20;3.00;;;;;;;4.08;78.78;94887.63;5036537;28;20187;-63
2022/04/12 03:45:40;;;;;;;6.83;3.47;;;;;;;4.33;77.69;94914.72;5035666;28;20241;-61
2022/04/12 03:48:08;;;;;;;6.23;3.00;;;;;;;4.22;77.22;94913.63;5036098;28;20217;-64
2022/04/12 03:50:34;;;;;;;5.67;3.10;;;;;;;4.07;77.19;94901.09;5035734;28;20204;-63
2022/04/12 03:53:01;;;;;;;8.13;2.93;;;;;;;4.06;77.14;94900.28;5036204;28;20213;-62
2022/04/12 03:55:30;;;;;;;9.33;3.47;;;;;;;4.16;76.37;94906.41;5035687;28;20190;-62
2022/04/12 03:58:05;;;;;;;14.97;3.70;;;;;;;4.24;76.52;94916.84;5036303;28;20186;-61
2022/04/12 04:00:31;;;;;;;10.60;3.80;;;;;;;3.98;78.47;94882.28;5035583;28;20654;-61
2022/04/12 04:02:57;;;;;;;17.97;4.63;;;;;;;3.90;79.41;94878.59;5002204;28;20610;-63
2022/04/12 04:05:23;;;;;;;12.50;4.73;;;;;;;4.00;77.73;94907.38;5035633;28;20218;-61
2022/04/12 04:07:49;;;;;;;20.53;5.40;;;;;;;4.04;77.96;94906.31;5035556;28;20622;-59
2022/04/12 04:10:15;;;;;;;7.37;4.23;;;;;;;3.97;79.22;94894.94;5017586;28;20193;-60
2022/04/12 04:12:42;;;;;;;13.30;4.40;;;;;;;4.06;78.66;94899.47;5035323;28;20192;-63
2022/04/12 04:15:12;;;;;;;10.07;3.87;;;;;;;4.20;77.26;94930.50;5042510;22;20240;-62
2022/04/12 04:17:47;;;;;;;11.67;3.57;;;;;;;4.28;75.01;94967.84;5035016;28;20282;-60
2022/04/12 04:20:15;;;;;;;12.27;3.30;;;;;;;4.20;73.25;94980.03;5035290;28;20189;-60
2022/04/12 04:22:41;;;;;;;15.23;4.13;;;;;;;3.91;72.95;94980.78;5035801;28;20562;-60
2022/04/12 04:25:12;;;;;;;6.80;3.40;;;;;;;3.97;72.51;94993.03;5035011;28;20668;-62
2022/04/12 04:27:46;;;;;;;6.93;2.83;;;;;;;3.79;72.73;94972.19;5018604;28;20194;-61
2022/04/12 04:30:12;;;;;;;6.47;2.50;;;;;;;4.00;72.73;94980.31;5034645;28;20205;-62
2022/04/12 04:32:38;;;;;;;7.30;2.30;;;;;;;3.95;72.96;94982.25;5017218;28;20245;-63
2022/04/12 04:35:05;;;;;;;3.80;1.93;;;;;;;4.06;72.93;94982.47;5034492;28;20179;-62
2022/04/12 04:37:30;;;;;;;6.33;2.63;;;;;;;4.00;73.71;94967.72;5055182;23;20311;-62
2022/04/12 04:39:55;;;;;;;9.90;2.50;;;;;;;4.19;72.84;94990.97;5054622;28;20648;-60
2022/04/12 04:42:23;;;;;;;2.73;1.93;;;;;;;4.09;73.07;94985.63;5054544;28;20206;-61
2022/04/12 04:44:49;;;;;;;4.20;2.20;;;;;;;4.15;72.43;95000.41;5043239;23;20313;-63
2022/04/12 04:47:15;;;;;;;5.67;3.10;;;;;;;4.24;72.42;95006.63;5034564;28;20678;-60
2022/04/12 04:49:41;;;;;;;10.07;2.40;;;;;;;4.30;71.34;95018.88;5034693;28;20614;-62
2022/04/12 04:52:06;;;;;;;5.73;3.23;;;;;;;4.36;71.15;95018.53;5034646;28;20240;-62
2022/04/12 04:54:32;;;;;;;5.37;2.60;;;;;;;4.38;70.47;95036.06;5034377;28;20174;-62
2022/04/12 04:56:57;;;;;;;6.60;2.60;;;;;;;4.56;70.34;95040.09;5041669;23;20239;-63
2022/04/12 04:59:23;;;;;;;4.93;2.80;;;;;;;4.73;69.01;95048.31;5016882;28;20186;-60
2022/04/12 05:01:49;;;;;;;6.37;2.77;;;;;;;4.63;70.10;95038.84;5034042;28;20210;-66
2022/04/12 05:04:15;;;;;;;4.63;2.90;;;;;;;4.68;70.54;95024.31;5034230;28;20622;-65
2022/04/12 05:06:40;;;;;;;5.77;3.30;;;;;;;4.57;70.87;95016.53;5032993;28;20222;-63
2022/04/12 05:09:05;;;;;;;10.07;3.80;;;;;;;4.53;71.61;94999.97;5034513;28;20206;-61
2022/04/12 05:11:31;;;;;;;11.07;4.30;;;;;;;4.68;71.43;95005.00;5016507;28;20208;-61
2022/04/12 05:13:57;;;;;;;15.77;7.37;;;;;;;4.83;71.37;95006.63;5033963;28;20186;-61
2022/04/12 05:16:23;;;;;;;23.23;8.83;;;;;;;4.90;72.09;95004.56;5016184;28;20295;-63
2022/04/12 05:18:48;;;;;;;16.93;6.27;;;;;;;4.97;71.25;95015.91;5016046;28;20218;-62
2022/04/12 05:21:13;;;;;;;13.43;5.13;;;;;;;4.75;71.95;95011.28;5033681;28;20213;-62
2022/04/12 05:23:40;;;;;;;14.20;5.03;;;;;;;4.90;71.76;95015.47;5033868;28;20184;-63
2022/04/12 05:26:05;;;;;;;13.20;4.70;;;;;;;4.70;71.98;94994.81;5047928;23;20241;-63
2022/04/12 05:28:30;;;;;;;8.97;3.37;;;;;;;4.81;71.84;95000.03;5053821;28;20171;-62
2022/04/12 05:30:56;;;;;;;11.40;3.80;;;;;;;5.02;71.08;95017.28;5053597;28;20216;-61
2022/04/12 05:33:21;;;;;;;9.87;3.47;;;;;;;5.16;70.47;95025.75;5053781;28;20197;-61
2022/04/12 05:35:47;;;;;;;9.87;4.40;;;;;;;5.29;70.55;95037.56;5053725;28;20206;-62
2022/04/12 05:38:12;;;;;;;6.70;3.60;;;;;;;5.62;68.06;95086.00;5053573;28;20280;-62
2022/04/12 05:40:38;;;;;;;14.80;6.13;;;;;;;5.50;68.59;95081.69;5052243;28;20213;-62
2022/04/12 05:43:03;;;;;;;12.20;4.80;;;;;;;5.28;69.31;95042.66;5053496;28;20181;-63
2022/04/12 05:45:29;;;;;;;10.37;4.80;;;;;;;5.46;68.59;95055.03;5053286;28;20632;-62
2022/04/12 05:47:55;;;;;;;10.13;4.60;;;;;;;5.61;67.87;95071.78;5053610;28;20193;-63
2022/04/12 05:50:24;;;;;;;10.63;4.13;;;;;;;5.76;67.51;95070.88;5053606;28;20212;-61
2022/04/12 05:52:50;;;;;;;9.30;4.60;;;;;;;6.00;67.06;95081.22;5068630;28;20184;-61
2022/04/12 05:55:18;;;;;;;10.97;4.90;;;;;;;6.17;65.68;95098.72;5053058;28;20196;-63
2022/04/12 05:58:01;;;;;;;9.87;4.90;;;;;;;6.31;65.25;95110.47;5053206;28;20567;-60
2022/04/12 06:00:29;;;;;;;10.13;5.13;;;;;;;6.24;66.17;95084.78;5053107;28;20232;-62
2022/04/12 06:02:55;;;;;;;13.30;7.50;;;;;;;6.36;67.21;95075.69;5053043;28;20188;-60
2022/04/12 06:05:23;;;;;;;10.33;7.13;;;;;;;6.59;67.47;95073.34;5052526;28;20252;-61
2022/04/12 06:07:50;;;;;;;17.70;8.90;;;;;;;6.58;67.18;95066.69;5052878;28;20234;-68
2022/04/12 06:10:17;;;;;;;18.17;8.90;;;;;;;6.28;68.73;95045.84;5053056;28;20221;-62
2022/04/12 06:12:43;;;;;;;15.30;8.90;;;;;;;6.28;69.90;95030.69;5052949;28;20192;-64
2022/04/12 06:15:09;;;;;;;14.50;9.00;;;;;;;6.35;69.88;95026.06;5052530;28;20647;-63
2022/04/12 06:17:36;;;;;;;18.33;9.33;;;;;;;6.59;68.52;95064.94;5053117;28;20671;-61
2022/04/12 06:20:11;;;;;;;11.47;8.13;;;;;;;6.68;68.41;95067.72;5052549;28;20326;-62
2022/04/12 06:22:44;;;;;;;14.63;8.40;;;;;;;6.51;67.84;95077.25;5052745;28;20233;-60
2022/04/12 06:25:11;;;;;;;18.83;8.93;;;;;;;6.54;67.72;95075.38;5068210;28;20225;-61
2022/04/12 06:27:42;;;;;;;13.90;7.57;;;;;;;6.65;67.27;95084.78;5052603;28;20219;-61
2022/04/12 06:30:13;;;;;;;15.43;7.27;;;;;;;6.68;66.82;95100.56;5068077;28;20260;-62
2022/04/12 06:32:38;;;;;;;15.93;7.80;;;;;;;6.83;67.46;95082.81;5052748;28;20188;-63
2022/04/12 06:35:06;;;;;;;18.37;8.13;;;;;;;6.95;66.83;95095.47;5052461;28;20180;-63
2022/04/12 06:37:32;;;;;;;9.90;6.17;;;;;;;6.91;66.23;95095.78;5052327;28;20176;-61
2022/04/12 06:39:58;;;;;;;14.53;7.00;;;;;;;6.81;67.09;95099.81;5052473;28;20654;-62
2022/04/12 06:42:25;;;;;;;13.23;7.53;;;;;;;6.58;66.81;95107.09;5052152;28;20567;-62
2022/04/12 06:44:50;;;;;;;17.87;7.83;;;;;;;6.84;65.55;95119.81;5052661;28;20173;-63
2022/04/12 06:47:16;;;;;;;15.53;7.13;;;;;;;6.88;66.07;95113.66;5050842;28;20233;-61
2022/04/12 06:49:46;;;;;;;12.87;7.10;;;;;;;6.62;66.20;95112.75;5052570;28;20741;-63
2022/04/12 06:52:13;;;;;;;13.03;8.80;;;;;;;6.83;68.60;95067.66;5052248;28;20198;-64
2022/04/12 06:54:42;;;;;;;17.40;7.50;;;;;;;7.14;65.57;95125.44;5052360;28;20181;-61
2022/04/12 06:57:07;;;;;;;13.53;7.33;;;;;;;7.30;64.12;95141.25;5040406;23;20226;-60
2022/04/12 06:59:34;;;;;;;16.70;9.40;;;;;;;7.45;64.15;95141.06;5032369;28;20181;-61
2022/04/12 07:02:01;;;;;;;13.80;7.30;;;;;;;7.52;64.68;95134.72;5032385;28;20206;-64
2022/04/12 07:04:27;;;;;;;16.53;7.47;;;;;;;7.18;64.60;95131.94;5032351;28;20182;-61
2022/04/12 07:06:52;;;;;;;11.20;7.03;;;;;;;7.63;63.11;95159.34;5032495;28;20296;-62
2022/04/12 07:09:20;;;;;;;12.50;7.17;;;;;;;7.92;63.29;95150.63;5032772;28;20181;-63
2022/04/12 07:11:59;;;;;;;14.13;6.70;;;;;;;7.92;63.25;95145.56;5032635;28;20202;-62
2022/04/12 07:14:26;;;;;;;8.73;5.47;;;;;;;8.11;62.03;95168.75;5039232;23;20174;-61
2022/04/12 07:16:52;;;;;;;14.00;6.33;;;;;;;8.03;63.82;95132.19;5031747;28;20779;-61
2022/04/12 07:19:17;;;;;;;12.37;6.30;;;;;;;8.19;61.82;95171.59;5032229;28;20269;-62
2022/04/12 07:21:43;;;;;;;10.03;5.93;;;;;;;8.03;62.14;95149.91;5031887;28;20204;-62
2022/04/12 07:24:09;;;;;;;10.07;6.47;;;;;;;8.20;63.63;95129.34;5031857;28;20179;-63
2022/04/12 07:26:36;;;;;;;13.60;6.37;;;;;;;8.29;64.03;95121.97;5034312;28;20214;-64
2022/04/12 07:29:02;;;;;;;13.07;6.37;;;;;;;8.42;63.60;95132.84;5032137;28;20200;-62
2022/04/12 07:31:28;;;;;;;12.00;6.13;;;;;;;8.43;62.85;95153.94;5032125;28;20201;-62
2022/04/12 07:33:54;;;;;;;12.33;6.57;;;;;;;8.30;63.51;95141.28;5014421;28;20174;-61
2022/04/12 07:36:19;;;;;;;13.50;6.97;;;;;;;8.38;63.54;95123.84;5031852;28;20201;-64
2022/04/12 07:38:45;;;;;;;12.23;6.60;;;;;;;8.36;62.81;95133.28;5014039;28;20171;-63
2022/04/12 07:41:11;;;;;;;11.43;6.17;;;;;;;8.41;62.55;95141.38;5049271;23;20287;-66
2022/04/12 07:43:36;;;;;;;9.17;5.67;;;;;;;8.60;60.78;95173.06;5031849;28;20554;-63
2022/04/12 07:46:03;;;;;;;10.80;6.10;;;;;;;8.68;61.82;95148.00;5031066;28;20213;-64
2022/04/12 07:48:28;;;;;;;8.63;5.00;;;;;;;8.98;58.52;95207.53;5031573;28;20190;-61
2022/04/12 07:50:54;;;;;;;13.30;5.60;;;;;;;9.05;58.42;95190.16;5032266;28;20198;-61
2022/04/12 07:53:20;;;;;;;14.20;6.17;;;;;;;9.08;58.21;95167.09;5031720;28;20178;-62
2022/04/12 07:55:45;;;;;;;10.13;6.13;;;;;;;9.09;59.71;95144.16;5032080;28;20574;-62
2022/04/12 07:58:11;;;;;;;11.23;5.70;;;;;;;8.97;56.26;95183.06;5031897;28;20690;-60
2022/04/12 08:00:36;;;;;;;11.60;6.80;;;;;;;9.05;57.95;95144.50;5031967;28;20581;-64
2022/04/12 08:03:02;;;;;;;10.30;6.23;;;;;;;9.10;57.34;95144.97;5032344;28;20181;-61
2022/04/12 08:05:27;;;;;;;8.87;4.77;;;;;;;9.46;54.95;95182.94;5038774;23;20232;-62
2022/04/12 08:07:53;;;;;;;7.50;4.37;;;;;;;9.58;51.74;95202.38;5013907;28;20265;-60
2022/04/12 08:10:19;;;;;;;7.40;3.80;;;;;;;9.66;52.28;95192.47;5039511;23;20644;-63
2022/04/12 08:12:47;;;;;;;5.10;2.77;;;;;;;9.91;48.53;95229.59;5051348;28;20182;-62
2022/04/12 08:15:14;;;;;;;5.90;2.97;;;;;;;9.84;46.63;95259.69;5051567;28;20190;-61
2022/04/12 08:17:40;;;;;;;3.20;1.90;;;;;;;9.64;44.77;95274.72;5047341;23;20226;-63
2022/04/12 08:20:09;;;;;;;3.10;2.00;;;;;;;9.53;44.92;95239.16;5032188;28;20185;-63
2022/04/12 08:22:35;;;;;;;4.93;2.80;;;;;;;9.30;44.37;95230.63;5031331;28;20285;-63
2022/04/12 08:25:01;;;;;;;2.60;2.17;;;;;;;9.44;44.17;95242.31;5031593;28;20271;-64
2022/04/12 08:27:27;;;;;;;5.13;2.50;;;;;;;9.63;44.65;95224.88;5033004;28;20209;-61
2022/04/12 08:29:53;;;;;;;2.80;2.13;;;;;;;9.67;43.16;95249.94;5035151;28;20179;-63
2022/04/12 08:32:18;;;;;;;1.97;1.87;;;;;;;9.43;42.46;95239.00;5035514;28;20203;-64
2022/04/12 08:34:45;;;;;;;5.40;2.07;;;;;;;9.74;44.19;95197.78;5035070;28;20188;-61
2022/04/12 08:37:11;;;;;;;3.37;1.80;;;;;;;9.94;44.21;95194.59;5035006;28;20403;-61
2022/04/12 08:39:37;;;;;;;4.33;2.03;;;;;;;9.93;42.50;95232.81;5034697;28;20193;-62
2022/04/12 08:42:04;;;;;;;5.50;1.87;;;;;;;9.97;41.97;95239.31;5017022;28;20214;-62
2022/04/12 08:44:32;;;;;;;4.13;2.10;;;;;;;10.42;42.96;95209.72;5034494;28;20170;-64
2022/04/12 08:47:01;;;;;;;4.73;1.73;;;;;;;10.07;41.57;95230.91;5035011;28;20305;-63
2022/04/12 08:49:27;;;;;;;4.53;2.53;;;;;;;10.17;41.68;95225.16;5034589;28;20182;-63
2022/04/12 08:51:53;;;;;;;6.40;2.70;;;;;;;10.38;41.72;95216.78;5033857;28;20206;-62
2022/04/12 08:54:19;;;;;;;7.50;2.40;;;;;;;10.65;41.06;95235.00;5034373;28;20189;-64
2022/04/12 08:56:48;;;;;;;3.23;2.00;;;;;;;10.78;40.72;95222.19;5034818;28;20237;-63
2022/04/12 08:59:13;;;;;;;7.10;3.03;;;;;;;10.52;40.69;95218.25;5034959;28;20197;-62
2022/04/12 09:01:41;;;;;;;4.27;2.30;;;;;;;10.46;40.71;95199.22;5034515;28;20288;-63
2022/04/12 09:04:07;;;;;;;9.57;2.73;;;;;;;10.52;39.80;95234.34;5041212;23;20233;-63
2022/04/12 09:06:32;;;;;;;4.33;2.27;;;;;;;10.99;39.55;95240.88;5033535;28;20210;-62
2022/04/12 09:09:12;;;;;;;2.17;1.83;;;;;;;11.59;39.62;95220.03;5035358;28;20198;-61
2022/04/12 09:11:42;;;;;;;4.23;2.37;;;;;;;12.21;38.21;95255.75;5033971;28;20194;-60
2022/04/12 09:14:13;;;;;;;2.93;1.70;;;;;;;12.36;38.47;95226.47;5034420;28;20189;-63
2022/04/12 09:16:43;;;;;;;2.97;2.17;;;;;;;12.86;37.40;95243.47;5034403;28;20217;-64
2022/04/12 09:19:09;;;;;;;4.63;2.60;;;;;;;13.04;37.82;95221.50;5034282;28;20186;-63
2022/04/12 09:21:43;;;;;;;2.37;2.03;;;;;;;13.57;36.80;95241.63;5033866;28;20202;-62
2022/04/12 09:24:19;;;;;;;3.93;2.20;;;;;;;13.89;35.79;95254.94;5034465;28;20643;-63
2022/04/12 09:26:55;;;;;;;7.03;2.30;;;;;;;13.63;37.18;95206.13;5034258;28;20224;-62
2022/04/12 09:29:26;;;;;;;3.23;2.60;;;;;;;13.72;35.57;95242.81;5042616;23;20217;-60
2022/04/12 09:31:55;;;;;;;3.67;1.90;;;;;;;13.18;34.68;95251.78;5052616;28;20236;-62
2022/04/12 09:34:21;;;;;;;5.07;2.13;;;;;;;12.96;36.00;95216.22;5053638;28;20201;-61
2022/04/12 09:36:47;;;;;;;5.00;1.92;;;;;;;12.85;35.61;95228.25;5053516;28;20202;-63
2022/04/12 09:39:16;;;;;;;4.53;2.20;;;;;;;12.87;35.24;95224.66;5053049;28;20189;-68
2022/04/12 09:41:41;;;;;;;3.07;1.60;;;;;;;12.92;35.73;95209.78;5068828;28;20203;-64
2022/04/12 09:44:08;;;;;;;3.10;1.70;;;;;;;13.21;35.49;95194.56;5052127;28;20189;-62
2022/04/12 09:46:38;;;;;;;2.37;1.57;;;;;;;13.58;35.56;95198.06;5053428;28;20214;-63
2022/04/12 09:49:07;;;;;;;3.40;2.00;;;;;;;13.55;34.45;95225.63;5052140;28;20194;-64
2022/04/12 09:51:36;;;;;;;3.43;2.10;;;;;;;14.61;35.57;95179.28;5053337;28;20197;-63
2022/04/12 09:54:08;;;;;;;2.28;1.60;;;;;;;15.14;35.08;95195.59;5068911;28;20193;-63
2022/04/12 09:56:36;;;;;;;4.63;2.47;;;;;;;14.64;33.45;95235.34;5051936;28;20205;-62
2022/04/12 09:59:07;;;;;;;2.45;1.88;;;;;;;13.96;33.77;95202.31;5053017;28;20216;-64
2022/04/12 10:01:39;;;;;;;3.20;2.30;;;;;;;13.98;34.26;95195.31;5053118;28;20197;-63
2022/04/12 10:04:08;;;;;;;3.25;1.90;;;;;;;13.93;34.31;95184.72;5051519;28;20225;-63
2022/04/12 10:06:41;;;;;;;5.20;2.07;;;;;;;13.97;34.37;95180.94;5053572;28;20213;-63
2022/04/12 10:09:09;;;;;;;4.30;1.77;;;;;;;14.21;34.17;95176.19;5051557;28;20647;-62
2022/04/12 10:11:35;;;;;;;2.80;1.70;;;;;;;14.67;35.11;95132.66;5052723;28;20276;-62
2022/04/12 10:14:01;;;;;;;3.08;1.98;;;;;;;15.19;35.33;95140.59;5052819;28;20220;-64
2022/04/12 10:16:28;;;;;;;3.05;1.65;;;;;;;15.35;33.49;95167.13;5053260;28;20190;-65
2022/04/12 10:18:54;;;;;;;2.28;1.52;;;;;;;15.49;33.31;95176.13;5051304;28;20185;-65
2022/04/12 10:21:22;;;;;;;3.20;1.60;;;;;;;15.59;33.53;95146.91;5052668;28;20201;-65
2022/04/12 10:23:55;;;;;;;6.85;1.75;;;;;;;16.23;34.04;95127.75;5051132;28;20181;-64
2022/04/12 10:26:23;;;;;;;2.45;1.65;;;;;;;16.67;32.07;95170.34;5052109;28;20671;-66
2022/04/12 10:29:00;;;;;;;3.28;1.50;;;;;;;16.34;33.13;95159.09;5051023;28;20182;-62
2022/04/12 10:31:31;;;;;;;3.92;1.65;;;;;;;16.67;32.47;95154.94;5052984;28;20235;-63
2022/04/12 10:34:05;;;;;;;1.65;1.23;;;;;;;16.78;33.34;95132.38;5052870;28;20257;-62
2022/04/12 10:37:04;;;;;;;2.13;1.75;;;;;;;16.93;32.98;95131.78;5052701;28;20204;-64
2022/04/12 10:39:46;;;;;;;2.25;1.83;;;;;;;17.20;31.65;95158.03;5052436;28;20627;-62
2022/04/12 10:42:17;;;;;;;3.45;1.98;;;;;;;17.13;32.12;95141.59;5052474;28;20587;-64
2022/04/12 10:44:56;;;;;;;2.95;1.60;;;;;;;15.91;32.05;95146.34;5052783;28;20692;-62
2022/04/12 10:47:33;;;;;;;2.67;1.48;;;;;;;15.39;32.12;95124.13;5041739;23;20283;-61
2022/04/12 10:50:04;;;;;;;1.25;1.15;;;;;;;16.02;32.88;95107.59;5032246;28;20166;-62
2022/04/12 10:52:55;;;;;;;1.88;1.38;;;;;;;17.16;31.85;95125.06;5012631;28;20171;-63
2022/04/12 10:55:28;;;;;;;2.58;1.83;;;;;;;17.32;30.81;95150.81;5009691;28;20298;-64
2022/04/12 10:58:10;;;;;;;2.15;1.33;;;;;;;16.91;30.80;95146.56;5012814;28;20266;-62
2022/04/12 11:00:36;;;;;;;4.05;1.42;;;;;;;16.59;31.32;95127.50;5012677;28;20579;-65
2022/04/12 11:03:02;;;;;;;1.50;1.27;;;;;;;17.28;30.95;95121.25;5012592;28;20179;-64
2022/04/12 11:05:33;;;;;;;1.65;1.55;;;;;;;17.76;31.55;95108.44;4995186;28;20704;-64
2022/04/12 11:07:59;;;;;;;4.13;1.40;;;;;;;18.02;30.64;95123.66;5013002;28;20279;-64
2022/04/12 11:10:26;;;;;;;4.25;1.58;;;;;;;18.00;31.43;95092.94;5012930;28;20627;-62
2022/04/12 11:13:04;;;;;;;1.33;1.10;;;;;;;17.31;31.22;95111.44;5025661;23;20305;-62
2022/04/12 11:15:31;;;;;;;1.98;1.60;;;;;;;16.53;31.10;95112.72;5031774;28;20289;-64
2022/04/12 11:18:16;;;;;;;2.33;1.42;;;;;;;16.40;31.58;95091.75;5031918;28;20240;-65
2022/04/12 11:23:45;;;;;;;2.67;1.45;;;;;;;16.62;30.95;95101.50;5059612;22;20714;-62
2022/04/12 11:26:47;;;;;;;1.75;1.25;;;;;;;16.22;31.15;95080.78;5051775;28;20217;-62
2022/04/12 11:29:16;;;;;;;4.72;1.50;;;;;;;16.78;32.57;95042.50;5051594;28;20290;-62
2022/04/12 11:31:55;;;;;;;3.25;1.48;;;;;;;16.91;31.19;95077.19;5051830;28;20198;-63
2022/04/12 11:34:23;;;;;;;3.63;1.33;;;;;;;17.19;30.10;95101.66;5051549;28;20161;-64
2022/04/12 11:36:50;;;;;;;1.55;1.17;;;;;;;17.10;29.98;95100.03;5050483;28;20297;-64
2022/04/12 11:39:27;;;;;;;2.80;1.17;;;;;;;17.55;30.05;95092.69;5051972;28;20647;-61
2022/04/12 11:42:01;;;;;;;2.47;1.70;;;;;;;17.81;29.93;95090.75;5051980;28;20208;-64
2022/04/12 11:44:27;;;;;;;2.83;1.30;;;;;;;17.41;29.17;95112.09;5074785;23;20233;-63